Time;durP1;ratioP1;P1;durP2;ratioP2;P2;SDS_P1;SDS_P2;PMS_P1;PMS_P2;Temp;Humidity;BMP_temperature;BMP_pressure;BME280_temperature;BME280_humidity;BME280_pressure;Samples;Min_cycle;Max_cycle;Signal;HPM_P1;HPM_P2
2022/05/18 00:00:00;;;;;;;7.60;5.43;;;18.80;99.90;;;;;;5040929;28;20045;-62
2022/05/18 00:02:26;;;;;;;6.35;5.18;;;18.80;99.90;;;;;;5050498;28;20061;-63
2022/05/18 00:04:52;;;;;;;8.45;5.43;;;18.70;99.90;;;;;;5049217;28;20088;-62
2022/05/18 00:07:18;;;;;;;6.75;5.05;;;18.70;99.90;;;;;;5022317;28;20057;-62
2022/05/18 00:09:44;;;;;;;7.55;5.57;;;18.60;99.90;;;;;;5038405;28;20520;-62
2022/05/18 00:12:10;;;;;;;7.63;5.53;;;18.60;99.90;;;;;;5038107;28;20116;-63
2022/05/18 00:14:36;;;;;;;6.80;5.90;;;18.60;99.90;;;;;;5016277;28;20065;-62
2022/05/18 00:17:04;;;;;;;9.55;5.72;;;18.50;99.90;;;;;;5031006;28;21008;-62
2022/05/18 00:19:31;;;;;;;6.32;5.68;;;18.50;99.90;;;;;;5037191;28;20049;-63
2022/05/18 00:21:57;;;;;;;10.07;6.10;;;18.40;99.90;;;;;;5039876;28;20045;-62
2022/05/18 00:24:23;;;;;;;12.65;7.55;;;18.40;99.90;;;;;;5041404;28;20465;-62
2022/05/18 00:26:49;;;;;;;7.43;6.00;;;18.30;99.90;;;;;;5029248;28;20060;-62
2022/05/18 00:29:14;;;;;;;7.60;5.97;;;18.30;99.90;;;;;;5029651;28;20120;-62
2022/05/18 00:31:41;;;;;;;8.65;6.22;;;18.20;99.90;;;;;;5049280;28;20049;-62
2022/05/18 00:34:07;;;;;;;9.15;6.38;;;18.20;99.90;;;;;;5057455;28;20057;-62
2022/05/18 00:36:34;;;;;;;8.25;5.93;;;18.10;99.90;;;;;;5052741;28;20044;-63
2022/05/18 00:38:59;;;;;;;10.63;6.90;;;18.10;99.90;;;;;;5039572;28;20047;-63
2022/05/18 00:41:27;;;;;;;8.70;6.15;;;18.10;99.90;;;;;;5049892;28;20120;-62
2022/05/18 00:43:54;;;;;;;9.70;7.10;;;18.00;99.90;;;;;;5039295;28;20845;-62
2022/05/18 00:46:20;;;;;;;7.30;5.82;;;18.00;99.90;;;;;;5046440;28;20111;-62
2022/05/18 00:48:46;;;;;;;9.30;6.35;;;17.80;99.90;;;;;;5026347;28;20049;-62
2022/05/18 00:51:26;;;;;;;8.18;6.82;;;18.00;99.90;;;;;;5033134;28;20076;-63
2022/05/18 00:53:59;;;;;;;7.93;5.93;;;17.80;99.90;;;;;;5042953;28;20065;-62
2022/05/18 00:56:35;;;;;;;10.57;6.80;;;17.80;99.90;;;;;;5025313;28;20180;-63
2022/05/18 00:59:08;;;;;;;9.15;6.35;;;17.90;99.90;;;;;;5030894;28;20053;-62
2022/05/18 01:01:34;;;;;;;8.93;6.63;;;17.80;99.90;;;;;;5031231;28;20083;-62
2022/05/18 01:04:02;;;;;;;7.78;6.07;;;17.70;99.90;;;;;;5041383;28;20045;-62
2022/05/18 01:06:46;;;;;;;6.95;6.07;;;17.70;99.90;;;;;;5027708;28;20041;-62
2022/05/18 01:09:28;;;;;;;7.30;6.55;;;17.80;99.90;;;;;;5024574;28;20506;-62
2022/05/18 01:11:54;;;;;;;14.25;7.00;;;17.70;99.90;;;;;;5045047;28;20055;-62
2022/05/18 01:14:29;;;;;;;7.88;6.13;;;17.60;99.90;;;;;;5039168;28;20049;-62
2022/05/18 01:16:55;;;;;;;9.45;6.32;;;17.60;99.90;;;;;;5036902;28;20108;-62
2022/05/18 01:20:00;;;;;;;9.35;6.05;;;17.50;99.90;;;;;;5044536;28;20037;-62
2022/05/18 01:22:45;;;;;;;11.02;6.93;;;17.70;99.90;;;;;;5017469;28;20052;-62
2022/05/18 01:25:25;;;;;;;9.23;6.85;;;17.50;99.90;;;;;;5023126;28;20109;-62
2022/05/18 01:27:52;;;;;;;9.63;6.30;;;17.40;99.90;;;;;;5032190;28;20050;-62
2022/05/18 01:30:19;;;;;;;9.38;6.38;;;17.40;99.90;;;;;;5040001;28;20056;-62
2022/05/18 01:32:55;;;;;;;8.95;6.18;;;17.40;99.90;;;;;;5057794;28;20049;-62
2022/05/18 01:35:24;;;;;;;9.57;6.97;;;17.40;99.90;;;;;;5019043;28;20076;-62
2022/05/18 01:37:50;;;;;;;8.87;6.83;;;17.30;99.90;;;;;;5035441;28;20042;-62
2022/05/18 01:40:41;;;;;;;8.93;6.40;;;17.30;99.90;;;;;;5021884;28;20056;-62
2022/05/18 01:43:27;;;;;;;11.07;6.43;;;17.20;99.90;;;;;;5048390;28;20053;-63
2022/05/18 01:45:56;;;;;;;9.60;6.68;;;17.30;99.90;;;;;;5026317;28;20135;-62
2022/05/18 01:48:24;;;;;;;7.82;6.32;;;17.30;99.90;;;;;;5050187;28;20150;-62
2022/05/18 01:50:51;;;;;;;9.60;7.43;;;17.20;99.90;;;;;;5039757;28;20111;-63
2022/05/18 01:53:17;;;;;;;10.35;7.35;;;17.30;99.90;;;;;;5037104;28;20049;-62
2022/05/18 01:55:44;;;;;;;8.13;6.68;;;17.30;99.90;;;;;;5026500;28;20085;-62
2022/05/18 01:58:12;;;;;;;9.68;6.93;;;17.20;99.90;;;;;;5035552;28;20120;-62
2022/05/18 02:00:39;;;;;;;12.38;7.28;;;17.10;99.90;;;;;;5038692;28;20079;-63
2022/05/18 02:03:05;;;;;;;9.73;6.13;;;17.20;99.90;;;;;;5034812;28;20117;-62
2022/05/18 02:05:30;;;;;;;8.82;6.72;;;17.10;99.90;;;;;;5022978;28;20071;-62
2022/05/18 02:07:57;;;;;;;9.45;6.50;;;17.20;99.90;;;;;;5052015;28;20037;-62
2022/05/18 02:10:24;;;;;;;7.55;6.75;;;17.10;99.90;;;;;;5021328;28;20166;-62
2022/05/18 02:12:51;;;;;;;10.88;6.63;;;17.10;99.90;;;;;;5055981;28;20045;-62
2022/05/18 02:15:17;;;;;;;9.27;6.80;;;17.10;99.90;;;;;;5013640;28;20053;-62
2022/05/18 02:17:43;;;;;;;9.93;6.40;;;17.00;99.90;;;;;;5038745;28;20057;-62
2022/05/18 02:20:10;;;;;;;8.60;6.38;;;17.00;99.90;;;;;;5034996;28;20036;-62
2022/05/18 02:22:35;;;;;;;8.90;7.25;;;17.00;99.90;;;;;;5057227;28;20042;-63
2022/05/18 02:25:02;;;;;;;8.80;6.50;;;17.00;99.90;;;;;;5032954;28;20040;-63
2022/05/18 02:27:29;;;;;;;9.85;6.72;;;17.00;99.90;;;;;;5040782;28;20041;-62
2022/05/18 02:29:54;;;;;;;9.48;6.93;;;17.00;99.90;;;;;;5031368;28;20045;-63
2022/05/18 02:32:20;;;;;;;7.15;6.20;;;17.00;99.90;;;;;;5043256;28;20144;-62
2022/05/18 02:34:46;;;;;;;9.07;6.18;;;17.00;99.90;;;;;;5028269;28;20041;-62
2022/05/18 02:37:12;;;;;;;8.52;6.68;;;17.10;99.90;;;;;;5033147;28;20067;-62
2022/05/18 02:39:37;;;;;;;8.68;6.70;;;16.90;99.90;;;;;;5029936;28;20053;-62
2022/05/18 02:42:03;;;;;;;8.45;7.15;;;16.90;99.90;;;;;;5031667;28;20045;-62
2022/05/18 02:44:29;;;;;;;11.32;7.15;;;16.90;99.90;;;;;;5046866;28;20128;-62
2022/05/18 02:46:57;;;;;;;9.55;7.65;;;16.90;99.90;;;;;;5051222;28;20139;-63
2022/05/18 02:49:24;;;;;;;8.30;7.13;;;16.90;99.90;;;;;;5028014;28;20072;-63
2022/05/18 02:51:51;;;;;;;8.55;7.63;;;16.80;99.90;;;;;;5049664;28;20049;-63
2022/05/18 02:57:02;;;;;;;9.35;7.10;;;16.80;99.90;;;;;;5051722;28;20068;-63
2022/05/18 02:59:28;;;;;;;16.52;8.10;;;16.80;99.90;;;;;;5025579;28;20519;-63
2022/05/18 03:01:53;;;;;;;10.35;7.97;;;16.70;99.90;;;;;;5048674;28;20124;-62
2022/05/18 03:04:19;;;;;;;9.55;8.10;;;16.70;99.90;;;;;;5027076;28;20053;-63
2022/05/18 03:06:45;;;;;;;10.90;7.35;;;16.70;99.90;;;;;;5023039;28;20561;-63
2022/05/18 03:09:11;;;;;;;9.40;7.80;;;16.70;99.90;;;;;;5023147;28;20084;-63
2022/05/18 03:11:37;;;;;;;8.65;7.20;;;16.60;99.90;;;;;;5038221;28;20123;-63
2022/05/18 03:14:03;;;;;;;10.35;7.47;;;16.60;99.90;;;;;;5028604;28;20214;-63
2022/05/18 03:16:29;;;;;;;9.43;7.18;;;16.50;99.90;;;;;;5049438;28;20060;-63
2022/05/18 03:18:55;;;;;;;11.63;7.70;;;16.50;99.90;;;;;;5016811;28;20141;-63
2022/05/18 03:24:05;;;;;;;8.13;7.22;;;16.40;99.90;;;;;;5028059;28;20049;-63
2022/05/18 03:26:31;;;;;;;9.18;7.47;;;16.40;99.90;;;;;;5034788;28;20096;-63
2022/05/18 03:28:57;;;;;;;10.57;7.88;;;16.40;99.90;;;;;;5045010;28;20034;-63
2022/05/18 03:31:25;;;;;;;9.27;7.90;;;16.40;99.90;;;;;;5023647;28;20055;-63
2022/05/18 03:33:51;;;;;;;10.43;8.23;;;16.20;99.90;;;;;;5038126;28;20045;-63
2022/05/18 03:36:18;;;;;;;9.30;7.60;;;16.40;99.90;;;;;;5049481;28;20053;-63
2022/05/18 03:38:46;;;;;;;11.93;8.38;;;16.20;99.90;;;;;;5039628;28;20052;-63
2022/05/18 03:41:13;;;;;;;12.55;8.60;;;16.20;99.90;;;;;;5040629;28;20069;-63
2022/05/18 03:43:39;;;;;;;8.95;7.57;;;16.10;99.90;;;;;;5047851;28;20182;-63
2022/05/18 03:46:06;;;;;;;10.57;8.30;;;16.10;99.90;;;;;;5030586;28;20052;-63
2022/05/18 03:48:33;;;;;;;11.77;9.05;;;16.00;99.90;;;;;;5031671;28;20037;-63
2022/05/18 03:51:00;;;;;;;12.82;8.68;;;16.10;99.90;;;;;;5036143;28;20072;-63
2022/05/18 03:53:27;;;;;;;9.80;7.90;;;16.10;99.90;;;;;;5022540;28;20079;-63
2022/05/18 03:55:53;;;;;;;12.00;8.48;;;16.10;99.90;;;;;;5038817;28;20072;-63
2022/05/18 03:58:19;;;;;;;8.80;7.10;;;16.20;99.90;;;;;;5037518;28;20049;-63
2022/05/18 04:00:47;;;;;;;12.02;8.27;;;16.20;99.90;;;;;;5016586;28;20056;-63
2022/05/18 04:03:18;;;;;;;11.57;8.52;;;16.20;99.90;;;;;;5037731;28;20037;-63
2022/05/18 04:05:47;;;;;;;10.85;8.18;;;16.20;99.90;;;;;;5018129;28;20072;-63
2022/05/18 04:08:13;;;;;;;10.82;8.15;;;16.30;99.90;;;;;;5037250;28;20045;-63
2022/05/18 04:10:39;;;;;;;12.35;8.20;;;16.30;99.90;;;;;;5032968;28;20072;-63
2022/05/18 04:13:07;;;;;;;9.82;7.65;;;16.20;99.90;;;;;;5040681;28;20133;-63
2022/05/18 04:15:33;;;;;;;11.02;8.18;;;16.20;99.90;;;;;;5016201;28;20084;-63
2022/05/18 04:17:59;;;;;;;11.00;7.75;;;16.20;99.90;;;;;;5029919;28;20187;-63
2022/05/18 04:20:25;;;;;;;10.45;8.00;;;16.30;99.90;;;;;;5015346;28;20050;-63
2022/05/18 04:22:51;;;;;;;9.65;8.10;;;16.30;99.90;;;;;;5040120;28;20067;-63
2022/05/18 04:25:20;;;;;;;9.38;7.80;;;16.40;99.90;;;;;;5046160;28;20041;-63
2022/05/18 04:27:47;;;;;;;9.85;7.50;;;16.40;99.90;;;;;;4997683;28;20055;-63
2022/05/18 04:30:15;;;;;;;11.00;7.88;;;16.30;99.90;;;;;;5026646;28;20140;-63
2022/05/18 04:32:40;;;;;;;9.68;8.00;;;16.40;99.90;;;;;;5032978;28;20063;-63
2022/05/18 04:35:08;;;;;;;10.60;8.38;;;16.40;99.90;;;;;;5041050;28;20045;-63
2022/05/18 04:37:35;;;;;;;12.52;8.50;;;16.40;99.90;;;;;;5046126;28;20053;-63
2022/05/18 04:40:02;;;;;;;9.48;8.02;;;16.40;99.90;;;;;;5048318;28;20041;-65
2022/05/18 04:42:27;;;;;;;9.68;8.40;;;16.30;99.90;;;;;;5046427;28;20056;-64
2022/05/18 04:44:53;;;;;;;9.18;8.05;;;16.50;99.90;;;;;;5022602;28;20045;-63
2022/05/18 04:47:23;;;;;;;13.25;8.40;;;16.40;99.90;;;;;;5028478;28;20079;-64
2022/05/18 04:49:50;;;;;;;10.60;7.95;;;16.40;99.90;;;;;;5020804;28;20072;-63
2022/05/18 04:52:20;;;;;;;11.60;8.23;;;16.50;99.90;;;;;;5037370;28;20143;-64
2022/05/18 04:54:46;;;;;;;10.57;8.07;;;16.40;99.90;;;;;;5017074;28;20075;-65
2022/05/18 04:57:13;;;;;;;10.07;8.02;;;16.40;99.90;;;;;;5006801;28;20080;-64
2022/05/18 04:59:39;;;;;;;10.05;8.98;;;16.40;99.90;;;;;;5017195;28;20064;-65
2022/05/18 05:02:05;;;;;;;12.60;8.70;;;16.40;99.90;;;;;;5009448;28;20054;-65
2022/05/18 05:04:31;;;;;;;10.23;8.32;;;16.40;99.90;;;;;;5003221;28;20069;-63
2022/05/18 05:06:57;;;;;;;10.18;8.07;;;16.50;99.90;;;;;;5041189;28;20048;-64
2022/05/18 05:09:24;;;;;;;10.90;8.65;;;16.60;99.90;;;;;;5023364;28;20424;-64
2022/05/18 05:11:53;;;;;;;9.80;8.70;;;16.50;99.90;;;;;;5043141;28;20091;-64
2022/05/18 05:14:20;;;;;;;9.90;8.13;;;16.50;99.90;;;;;;5023959;28;20077;-63
2022/05/18 05:16:46;;;;;;;11.48;9.02;;;16.60;99.90;;;;;;5028029;28;20072;-67
2022/05/18 05:19:13;;;;;;;11.63;9.23;;;16.50;99.90;;;;;;5023398;28;20506;-64
2022/05/18 05:21:42;;;;;;;10.20;8.70;;;16.60;99.90;;;;;;5017975;28;20045;-63
2022/05/18 05:24:12;;;;;;;12.48;9.90;;;16.60;99.90;;;;;;5022558;28;20582;-63
2022/05/18 05:26:39;;;;;;;12.93;10.32;;;16.70;99.90;;;;;;5034387;28;20056;-63
2022/05/18 05:29:06;;;;;;;11.50;8.98;;;16.70;99.90;;;;;;5040826;28;20033;-63
2022/05/18 05:31:31;;;;;;;11.13;9.60;;;16.70;99.90;;;;;;5023905;28;20065;-64
2022/05/18 05:33:58;;;;;;;11.18;9.88;;;16.80;99.90;;;;;;5035433;28;20040;-63
2022/05/18 05:36:24;;;;;;;14.20;10.20;;;16.80;99.90;;;;;;5008218;28;20253;-63
2022/05/18 05:38:49;;;;;;;15.43;10.40;;;16.80;99.90;;;;;;5017696;28;20042;-63
2022/05/18 05:41:16;;;;;;;12.55;10.55;;;16.90;99.90;;;;;;5008098;28;20292;-63
2022/05/18 05:43:42;;;;;;;14.73;10.27;;;16.80;99.90;;;;;;5017413;28;20049;-63
2022/05/18 05:46:13;;;;;;;15.18;10.27;;;16.90;99.90;;;;;;5030531;28;20059;-63
2022/05/18 05:48:41;;;;;;;14.18;10.48;;;17.00;99.90;;;;;;5044113;28;20560;-63
2022/05/18 05:51:13;;;;;;;15.50;11.20;;;17.10;99.90;;;;;;5008227;28;20052;-63
2022/05/18 05:53:46;;;;;;;12.13;10.93;;;17.10;99.90;;;;;;5044688;28;20046;-63
2022/05/18 05:56:15;;;;;;;12.85;10.55;;;17.20;99.90;;;;;;5011546;28;20084;-64
2022/05/18 05:58:43;;;;;;;12.50;11.10;;;17.20;99.90;;;;;;5042950;28;20063;-64
2022/05/18 06:01:11;;;;;;;13.32;12.02;;;17.20;99.90;;;;;;4997174;28;20054;-64
2022/05/18 06:03:37;;;;;;;13.02;11.65;;;17.30;99.90;;;;;;5009263;28;20362;-62
2022/05/18 06:06:03;;;;;;;12.18;10.88;;;17.40;99.90;;;;;;5029778;28;20342;-62
2022/05/18 06:08:30;;;;;;;13.50;11.50;;;17.50;99.90;;;;;;5049102;28;20037;-63
2022/05/18 06:10:59;;;;;;;12.25;10.70;;;17.50;99.90;;;;;;5035064;28;20059;-62
2022/05/18 06:13:26;;;;;;;13.27;10.93;;;17.60;99.90;;;;;;5050524;28;20113;-62
2022/05/18 06:15:52;;;;;;;14.65;11.15;;;17.60;99.90;;;;;;5033935;28;20070;-62
2022/05/18 06:18:18;;;;;;;13.52;11.77;;;17.70;99.90;;;;;;5022365;28;20068;-62
2022/05/18 06:20:45;;;;;;;12.82;11.23;;;17.80;99.90;;;;;;5029596;28;20049;-62
2022/05/18 06:23:11;;;;;;;12.32;11.02;;;17.80;99.90;;;;;;5051581;28;20049;-62
2022/05/18 06:25:37;;;;;;;12.10;10.80;;;17.90;99.90;;;;;;5026749;28;20402;-62
2022/05/18 06:28:05;;;;;;;13.35;10.30;;;17.90;99.90;;;;;;5051669;28;20048;-62
2022/05/18 06:30:30;;;;;;;17.50;11.10;;;18.00;99.90;;;;;;5020012;28;20361;-62
2022/05/18 06:32:56;;;;;;;14.18;10.32;;;18.20;99.90;;;;;;5040967;28;20053;-62
2022/05/18 06:35:22;;;;;;;12.60;11.30;;;18.20;99.90;;;;;;5019370;28;20489;-63
2022/05/18 06:37:49;;;;;;;13.35;10.90;;;18.30;99.90;;;;;;5026204;28;20056;-62
2022/05/18 06:40:16;;;;;;;15.50;10.75;;;18.30;99.90;;;;;;5018712;28;20045;-62
2022/05/18 06:42:41;;;;;;;17.42;11.77;;;18.40;99.90;;;;;;5025090;28;20040;-62
2022/05/18 06:45:08;;;;;;;12.73;10.68;;;18.50;99.90;;;;;;5019522;28;20263;-62
2022/05/18 06:47:34;;;;;;;14.13;11.55;;;18.60;99.90;;;;;;5041793;28;20060;-62
2022/05/18 06:50:01;;;;;;;15.75;11.07;;;18.60;99.90;;;;;;5036695;28;20044;-62
2022/05/18 06:52:27;;;;;;;14.60;11.40;;;18.70;99.90;;;;;;5022497;28;20059;-62
2022/05/18 06:54:53;;;;;;;13.88;10.50;;;18.70;99.90;;;;;;5039064;28;20132;-62
2022/05/18 06:57:18;;;;;;;14.23;10.70;;;18.80;99.90;;;;;;5022878;28;20524;-62
2022/05/18 06:59:44;;;;;;;12.82;11.15;;;18.90;99.90;;;;;;5037071;28;20049;-64
2022/05/18 07:02:10;;;;;;;15.25;11.75;;;18.90;99.90;;;;;;5021177;28;20052;-65
2022/05/18 07:04:36;;;;;;;12.73;11.02;;;18.90;99.90;;;;;;5023010;28;20041;-66
2022/05/18 07:07:02;;;;;;;13.40;11.10;;;19.00;99.90;;;;;;5013593;28;20049;-66
2022/05/18 07:09:29;;;;;;;14.60;10.45;;;19.00;99.90;;;;;;5042897;28;20127;-62
2022/05/18 07:11:54;;;;;;;11.50;10.35;;;19.10;99.90;;;;;;5035182;28;20683;-62
2022/05/18 07:14:23;;;;;;;14.13;10.38;;;19.10;99.90;;;;;;5045271;28;20049;-62
2022/05/18 07:16:49;;;;;;;12.02;10.82;;;19.20;99.90;;;;;;5023302;28;20045;-63
2022/05/18 07:19:17;;;;;;;11.98;10.55;;;19.40;99.90;;;;;;5022560;28;20053;-62
2022/05/18 07:21:43;;;;;;;12.50;11.02;;;19.40;99.90;;;;;;5033586;28;20452;-63
2022/05/18 07:24:09;;;;;;;14.93;10.52;;;19.40;99.90;;;;;;5042938;28;20338;-63
2022/05/18 07:26:36;;;;;;;12.60;10.25;;;19.60;99.90;;;;;;5031254;28;20057;-63
2022/05/18 07:29:03;;;;;;;11.45;9.73;;;19.60;99.90;;;;;;5046219;28;20155;-62
2022/05/18 07:32:08;;;;;;;11.98;9.38;;;19.70;99.90;;;;;;5029922;28;20742;-63
2022/05/18 07:34:18;;;;;;;10.52;9.52;;;19.90;99.90;;;;;;5037643;28;20042;-62
2022/05/18 07:36:44;;;;;;;12.77;9.82;;;19.90;99.90;;;;;;5033450;28;20079;-63
2022/05/18 07:39:11;;;;;;;13.68;10.05;;;20.10;99.90;;;;;;5045544;28;20107;-62
2022/05/18 07:41:37;;;;;;;9.80;8.35;;;20.10;99.90;;;;;;5032460;28;20086;-63
2022/05/18 07:44:04;;;;;;;12.43;9.05;;;20.10;99.90;;;;;;5029674;28;20045;-63
2022/05/18 07:46:29;;;;;;;10.77;9.68;;;20.20;99.90;;;;;;5016124;28;20045;-63
2022/05/18 07:48:55;;;;;;;12.27;9.18;;;20.30;99.90;;;;;;5045507;28;20052;-63
2022/05/18 07:51:21;;;;;;;10.02;8.43;;;20.40;99.90;;;;;;5033511;28;20058;-63
2022/05/18 07:53:47;;;;;;;9.15;7.93;;;20.40;99.90;;;;;;5050979;28;20295;-62
2022/05/18 07:56:13;;;;;;;10.48;8.20;;;20.50;99.90;;;;;;5028635;28;20054;-62
2022/05/18 07:58:40;;;;;;;11.13;8.45;;;20.60;99.90;;;;;;5028745;28;20219;-63
2022/05/18 08:01:08;;;;;;;10.52;8.80;;;20.60;99.90;;;;;;4997070;28;20042;-63
2022/05/18 08:03:34;;;;;;;11.23;8.23;;;20.70;99.90;;;;;;5048902;28;20073;-62
2022/05/18 08:06:00;;;;;;;10.57;7.90;;;20.90;99.90;;;;;;5026601;28;20219;-63
2022/05/18 08:08:26;;;;;;;8.77;7.43;;;21.10;99.90;;;;;;5049462;28;20049;-62
2022/05/18 08:16:21;;;;;;;8.77;7.07;;;21.20;99.90;;;;;;5026620;28;20049;-62
2022/05/18 08:18:48;;;;;;;12.75;7.30;;;21.30;99.90;;;;;;5018703;28;20441;-62
2022/05/18 08:21:14;;;;;;;9.82;7.20;;;21.30;99.90;;;;;;5025529;28;20041;-63
2022/05/18 08:23:40;;;;;;;11.50;7.25;;;21.50;99.90;;;;;;5046577;28;20044;-62
2022/05/18 08:26:06;;;;;;;9.38;6.43;;;21.60;99.90;;;;;;5023478;28;20087;-63
2022/05/18 08:28:33;;;;;;;10.63;7.80;;;21.70;99.90;;;;;;5028215;28;20705;-62
2022/05/18 08:30:58;;;;;;;9.13;7.20;;;21.70;99.90;;;;;;5033277;28;20038;-63
2022/05/18 08:33:25;;;;;;;10.63;6.75;;;21.80;99.90;;;;;;5023100;28;20056;-63
2022/05/18 08:35:51;;;;;;;7.93;5.95;;;22.00;99.90;;;;;;5046965;28;20049;-63
2022/05/18 08:38:19;;;;;;;7.70;6.47;;;22.10;99.90;;;;;;5038947;28;20112;-63
2022/05/18 08:40:47;;;;;;;10.43;6.80;;;22.30;99.90;;;;;;5015082;28;20056;-63
2022/05/18 08:43:33;;;;;;;11.60;7.38;;;22.50;99.90;;;;;;5000113;28;20061;-62
2022/05/18 08:46:09;;;;;;;11.15;6.90;;;22.50;99.90;;;;;;5032545;28;20059;-62
2022/05/18 08:49:10;;;;;;;10.48;6.85;;;22.50;99.90;;;;;;5007484;28;20528;-63
2022/05/18 08:52:01;;;;;;;9.43;6.65;;;22.60;99.90;;;;;;5035653;28;20105;-63
2022/05/18 08:54:45;;;;;;;12.57;8.23;;;22.70;99.90;;;;;;5007681;28;20389;-63
2022/05/18 08:57:19;;;;;;;10.50;7.38;;;22.70;99.90;;;;;;5033201;28;20698;-63
2022/05/18 08:59:49;;;;;;;8.70;7.18;;;22.90;99.90;;;;;;5036023;28;20037;-63
2022/05/18 09:02:20;;;;;;;9.23;5.97;;;22.80;99.90;;;;;;5031688;28;20049;-63
2022/05/18 09:05:09;;;;;;;9.20;6.40;;;22.80;99.90;;;;;;5039767;28;20251;-63
2022/05/18 09:07:43;;;;;;;10.45;8.02;;;23.10;99.90;;;;;;5019950;28;20045;-63
2022/05/18 09:10:25;;;;;;;10.75;6.60;;;23.30;99.90;;;;;;5019955;28;20046;-63
2022/05/18 09:12:51;;;;;;;12.15;7.32;;;23.50;99.90;;;;;;4997598;28;20312;-63
2022/05/18 09:15:25;;;;;;;10.55;7.00;;;23.50;99.90;;;;;;5031819;28;20171;-63
2022/05/18 09:18:00;;;;;;;10.77;7.03;;;23.50;99.90;;;;;;5007321;28;20052;-63
2022/05/18 09:20:43;;;;;;;10.57;9.15;;;23.50;99.90;;;;;;5032546;28;20080;-63
2022/05/18 09:23:15;;;;;;;13.48;8.05;;;23.70;99.90;;;;;;5004590;28;20183;-63
2022/05/18 09:26:05;;;;;;;9.88;8.40;;;23.80;99.90;;;;;;5052369;28;20049;-63
2022/05/18 09:29:04;;;;;;;13.57;8.50;;;23.90;99.90;;;;;;5040380;28;20473;-63
2022/05/18 09:32:11;;;;;;;9.60;8.05;;;23.80;99.90;;;;;;5024170;28;20598;-63
2022/05/18 09:34:55;;;;;;;10.40;9.25;;;23.90;99.90;;;;;;5010749;28;20139;-63
2022/05/18 09:37:27;;;;;;;11.27;9.35;;;24.00;99.90;;;;;;5029943;28;20052;-63
2022/05/18 09:40:12;;;;;;;14.07;8.75;;;24.00;99.90;;;;;;5022176;28;20041;-63
2022/05/18 09:42:54;;;;;;;13.35;9.05;;;24.10;99.90;;;;;;5036375;28;20137;-63
2022/05/18 09:45:22;;;;;;;10.13;8.43;;;24.30;99.90;;;;;;5038710;28;20076;-63
2022/05/18 09:47:56;;;;;;;9.65;7.93;;;24.40;99.90;;;;;;5040268;28;20052;-63
2022/05/18 09:50:22;;;;;;;11.20;9.20;;;24.40;99.90;;;;;;5008609;28;20139;-63
2022/05/18 09:52:49;;;;;;;10.23;8.55;;;24.50;99.90;;;;;;5037114;28;20346;-63
2022/05/18 09:55:19;;;;;;;14.13;9.45;;;24.60;99.90;;;;;;5040203;28;20053;-63
2022/05/18 09:57:51;;;;;;;10.45;8.00;;;24.60;99.90;;;;;;5037479;28;20049;-63
2022/05/18 10:00:20;;;;;;;9.88;7.68;;;24.70;99.90;;;;;;5027994;28;20053;-63
2022/05/18 10:08:30;;;;;;;13.40;8.95;;;24.80;99.90;;;;;;5040971;28;20143;-63
2022/05/18 10:11:02;;;;;;;7.78;6.95;;;25.00;99.90;;;;;;5020366;28;20052;-63
2022/05/18 10:13:35;;;;;;;11.73;7.45;;;25.00;99.90;;;;;;5040249;28;20554;-63
2022/05/18 10:16:14;;;;;;;12.48;8.90;;;25.00;99.90;;;;;;5038171;28;20422;-63
2022/05/18 10:18:43;;;;;;;9.90;8.20;;;25.10;99.90;;;;;;5029511;28;20059;-63
2022/05/18 10:21:09;;;;;;;9.60;8.70;;;25.00;99.90;;;;;;5035193;28;20085;-63
2022/05/18 10:23:46;;;;;;;7.57;6.20;;;25.00;99.90;;;;;;5040916;28;20072;-63
2022/05/18 10:26:42;;;;;;;11.88;6.93;;;25.20;99.90;;;;;;5014844;28;20061;-63
2022/05/18 10:29:13;;;;;;;10.02;7.85;;;25.30;99.90;;;;;;5007144;28;20133;-63
2022/05/18 10:31:59;;;;;;;9.75;8.75;;;25.30;99.90;;;;;;5011435;28;20308;-63
2022/05/18 10:34:28;;;;;;;10.27;7.28;;;25.40;99.90;;;;;;5031312;28;20041;-63
2022/05/18 10:37:01;;;;;;;7.55;5.85;;;25.40;99.90;;;;;;5027512;28;20045;-63
2022/05/18 10:39:31;;;;;;;15.27;7.65;;;25.50;99.90;;;;;;5029982;28;20049;-62
2022/05/18 10:41:58;;;;;;;7.90;5.90;;;25.60;99.90;;;;;;5008226;28;20060;-63
2022/05/18 10:44:33;;;;;;;11.82;9.65;;;25.60;99.90;;;;;;5029939;28;20068;-63
2022/05/18 10:47:19;;;;;;;12.55;9.25;;;25.60;99.90;;;;;;5026679;28;20099;-63
2022/05/18 10:49:45;;;;;;;12.80;9.82;;;25.50;99.90;;;;;;5045903;28;20297;-63
2022/05/18 10:52:19;;;;;;;10.45;8.98;;;25.60;99.90;;;;;;5028883;28;20467;-63
2022/05/18 10:55:10;;;;;;;12.35;9.45;;;25.60;99.90;;;;;;5026190;28;20499;-63
2022/05/18 10:57:39;;;;;;;11.93;9.57;;;25.80;99.90;;;;;;5028037;28;20073;-63
2022/05/18 11:00:15;;;;;;;9.70;8.00;;;25.80;99.90;;;;;;5028860;28;20045;-63
2022/05/18 11:02:59;;;;;;;11.68;9.90;;;25.70;99.90;;;;;;5035784;28;20081;-63
2022/05/18 11:05:42;;;;;;;13.63;8.73;;;25.70;99.90;;;;;;5039499;28;20163;-63
2022/05/18 11:08:14;;;;;;;11.90;9.57;;;25.80;99.90;;;;;;5019472;28;20049;-63
2022/05/18 11:11:03;;;;;;;13.48;11.05;;;25.90;99.90;;;;;;5006503;28;20054;-62
2022/05/18 11:13:49;;;;;;;11.50;10.02;;;26.10;99.90;;;;;;5018685;28;20058;-62
2022/05/18 11:16:20;;;;;;;14.38;9.65;;;26.20;99.90;;;;;;5015881;28;20069;-63
2022/05/18 11:18:45;;;;;;;12.55;9.27;;;26.20;99.90;;;;;;5008475;28;20057;-63
2022/05/18 11:21:34;;;;;;;11.38;10.18;;;26.20;99.90;;;;;;5015896;28;20557;-63
2022/05/18 11:24:28;;;;;;;12.45;10.10;;;26.40;99.90;;;;;;5001926;28;20331;-63
2022/05/18 11:27:03;;;;;;;11.20;8.90;;;26.50;99.90;;;;;;5005497;28;20041;-63
2022/05/18 11:29:53;;;;;;;10.80;7.72;;;26.60;99.90;;;;;;5007480;28;20054;-63
2022/05/18 11:32:38;;;;;;;11.05;7.90;;;26.50;99.90;;;;;;5007241;28;20071;-63
2022/05/18 11:35:42;;;;;;;10.75;9.20;;;26.50;99.90;;;;;;5006283;28;20045;-63
2022/05/18 11:38:57;;;;;;;10.63;9.52;;;26.50;99.90;;;;;;5015430;28;20045;-63
2022/05/18 11:41:47;;;;;;;13.27;11.80;;;26.50;99.90;;;;;;4992909;28;20050;-63
2022/05/18 11:44:50;;;;;;;14.93;12.07;;;26.90;99.90;;;;;;4987605;28;20506;-63
2022/05/18 11:47:25;;;;;;;13.35;10.00;;;26.80;99.90;;;;;;5004321;28;20503;-63
2022/05/18 11:50:16;;;;;;;12.88;9.10;;;26.80;99.90;;;;;;5023129;28;20072;-63
2022/05/18 11:53:13;;;;;;;12.95;11.40;;;26.70;99.90;;;;;;4992819;28;20057;-63
2022/05/18 11:55:48;;;;;;;14.40;12.23;;;26.70;99.90;;;;;;5018210;28;20521;-63
2022/05/18 11:58:44;;;;;;;12.80;11.00;;;26.80;99.90;;;;;;4997400;28;20251;-63
2022/05/18 12:01:33;;;;;;;12.00;10.32;;;26.70;99.90;;;;;;4998254;28;20083;-63
2022/05/18 12:04:12;;;;;;;;;;;26.80;99.90;;;;;;5019253;28;20120;-63
2022/05/18 12:06:55;;;;;;;12.80;11.17;;;26.90;99.90;;;;;;5008579;28;20135;-63
2022/05/18 12:09:40;;;;;;;12.25;10.23;;;26.80;99.90;;;;;;4973144;28;20403;-63
2022/05/18 12:12:23;;;;;;;15.18;9.07;;;26.80;99.90;;;;;;5007892;28;20465;-64
2022/05/18 12:15:07;;;;;;;12.00;10.65;;;27.00;99.90;;;;;;5024721;28;20045;-63
2022/05/18 12:17:41;;;;;;;10.55;9.57;;;27.30;99.90;;;;;;5010656;28;20132;-63
2022/05/18 12:20:13;;;;;;;13.45;8.63;;;27.40;99.90;;;;;;5036641;28;20037;-63
2022/05/18 12:22:53;;;;;;;13.55;9.45;;;27.50;99.90;;;;;;5011044;28;20095;-63
2022/05/18 12:25:22;;;;;;;11.82;10.57;;;27.50;99.90;;;;;;5040342;28;20096;-63
2022/05/18 12:27:51;;;;;;;10.25;8.43;;;27.40;99.90;;;;;;5011488;28;20080;-63
2022/05/18 12:30:19;;;;;;;10.63;8.43;;;27.30;99.90;;;;;;5018005;28;20529;-63
2022/05/18 12:32:47;;;;;;;10.82;8.40;;;27.30;99.90;;;;;;5020713;28;20076;-63
2022/05/18 12:35:30;;;;;;;9.55;8.48;;;27.00;99.90;;;;;;5027417;28;20079;-63
2022/05/18 12:38:08;;;;;;;9.77;7.03;;;27.00;99.90;;;;;;5015720;28;20041;-63
2022/05/18 12:40:51;;;;;;;11.18;6.88;;;27.00;99.90;;;;;;5021414;28;20226;-63
2022/05/18 12:43:27;;;;;;;8.68;6.30;;;27.00;99.90;;;;;;5031112;28;20452;-63
2022/05/18 12:46:02;;;;;;;9.40;7.45;;;27.00;99.90;;;;;;5021656;28;20084;-63
2022/05/18 12:48:43;;;;;;;12.25;9.00;;;27.10;99.90;;;;;;5013036;28;20069;-63
2022/05/18 12:51:31;;;;;;;10.73;7.85;;;27.20;99.90;;;;;;5034590;28;20099;-63
2022/05/18 12:54:12;;;;;;;12.90;8.68;;;27.20;99.90;;;;;;5021609;28;20052;-62
2022/05/18 12:56:38;;;;;;;10.10;7.55;;;27.10;99.90;;;;;;5017359;28;20057;-63
2022/05/18 12:59:15;;;;;;;10.85;7.20;;;27.20;99.90;;;;;;5038531;28;20082;-63
2022/05/18 13:01:44;;;;;;;11.77;6.88;;;27.20;99.90;;;;;;5016591;28;20045;-63
2022/05/18 13:04:44;;;;;;;10.23;6.88;;;27.30;99.90;;;;;;5021304;28;20072;-63
2022/05/18 13:07:27;;;;;;;8.60;5.45;;;27.30;99.90;;;;;;5024279;28;20454;-63
2022/05/18 13:10:04;;;;;;;7.00;5.20;;;27.30;99.90;;;;;;5038566;28;20513;-63
2022/05/18 13:12:37;;;;;;;8.10;5.50;;;27.40;99.90;;;;;;5023467;28;20187;-63
2022/05/18 13:15:35;;;;;;;8.32;5.47;;;27.70;99.90;;;;;;5031581;28;20045;-63